createdAt,value
2019-03-16T00:00:20.068Z,0
2019-03-16T00:01:20.557Z,0
2019-03-16T00:02:21.312Z,0
2019-03-16T00:03:22.533Z,0
2019-03-16T00:04:23.077Z,0
2019-03-16T00:05:23.576Z,0
2019-03-16T00:06:24.358Z,0
2019-03-16T00:07:35.329Z,0
2019-03-16T00:08:35.862Z,0
2019-03-16T00:09:37.179Z,0
2019-03-16T00:10:38.223Z,0
2019-03-16T00:11:39.216Z,0
2019-03-16T00:12:39.716Z,0
2019-03-16T00:13:40.504Z,0
2019-03-16T00:14:40.980Z,0
2019-03-16T00:15:41.735Z,0
2019-03-16T00:16:42.492Z,0
2019-03-16T00:17:42.975Z,0
2019-03-16T00:18:43.918Z,0
2019-03-16T00:19:44.953Z,0
2019-03-16T00:20:45.433Z,0
2019-03-16T00:21:46.750Z,0
2019-03-16T00:22:46.947Z,0
2019-03-16T00:23:47.987Z,0
2019-03-16T00:24:49.019Z,0
2019-03-16T00:25:49.502Z,0
2019-03-16T00:26:50.293Z,0
2019-03-16T00:27:51.621Z,0
2019-03-16T00:28:51.270Z,0
2019-03-16T00:29:51.471Z,0
2019-03-16T00:30:52.528Z,0
2019-03-16T00:31:52.819Z,0
2019-03-16T00:32:53.586Z,0
2019-03-16T00:33:54.076Z,0
2019-03-16T00:34:54.290Z,0
2019-03-16T00:35:54.766Z,0
2019-03-16T00:36:55.804Z,0
2019-03-16T00:37:56.340Z,0
2019-03-16T00:38:57.269Z,0
2019-03-16T00:39:58.329Z,0
2019-03-16T00:40:59.096Z,0
2019-03-16T00:41:59.580Z,0
2019-03-16T00:43:00.333Z,0
2019-03-16T00:44:00.817Z,0
2019-03-16T00:45:01.665Z,0
2019-03-16T00:46:01.738Z,0
2019-03-16T00:47:02.512Z,0
2019-03-16T00:48:03.835Z,0
2019-03-16T00:49:04.590Z,0
2019-03-16T00:50:03.791Z,0
2019-03-16T00:51:04.553Z,0
2019-03-16T00:52:05.323Z,0
2019-03-16T00:53:06.082Z,0
2019-03-16T00:54:07.120Z,0
2019-03-16T00:55:07.967Z,0
2019-03-16T00:56:09.009Z,0
2019-03-16T00:57:09.850Z,0
2019-03-16T00:58:10.055Z,0
2019-03-16T00:59:11.287Z,0
2019-03-16T01:00:12.410Z,0
2019-03-16T01:01:13.172Z,0
2019-03-16T01:02:29.182Z,0
2019-03-16T01:02:36.337Z,0
2019-03-16T01:03:34.817Z,0
2019-03-16T01:04:35.576Z,0
2019-03-16T01:05:36.408Z,0
2019-03-16T01:06:36.885Z,0
2019-03-16T01:07:38.498Z,0
2019-03-16T01:08:38.534Z,0
2019-03-16T01:09:39.012Z,0
2019-03-16T01:10:39.515Z,0
2019-03-16T01:11:40.279Z,0
2019-03-16T01:12:40.763Z,0
2019-03-16T01:13:40.992Z,0
2019-03-16T01:14:42.038Z,0
2019-03-16T01:15:42.532Z,0
2019-03-16T01:16:43.292Z,0
2019-03-16T01:17:43.772Z,0
2019-03-16T01:18:44.820Z,0
2019-03-16T01:19:45.300Z,0
2019-03-16T01:20:46.337Z,0
2019-03-16T01:21:46.819Z,0
2019-03-16T01:22:47.343Z,0
2019-03-16T01:23:47.611Z,0
2019-03-16T01:24:48.702Z,0
2019-03-16T01:25:49.281Z,0
2019-03-16T01:26:49.763Z,0
2019-03-16T01:27:50.250Z,0
2019-03-16T01:28:51.052Z,0
2019-03-16T01:29:51.529Z,0
2019-03-16T01:30:53.416Z,0
2019-03-16T01:31:53.452Z,0
2019-03-16T01:32:54.207Z,0
2019-03-16T01:33:54.583Z,0
2019-03-16T01:34:55.617Z,0
2019-03-16T01:35:56.137Z,0
2019-03-16T01:36:56.629Z,0
2019-03-16T01:37:57.109Z,0
2019-03-16T01:38:57.621Z,0
2019-03-16T01:39:58.662Z,0
2019-03-16T01:40:59.697Z,0
2019-03-16T01:42:00.179Z,0
2019-03-16T01:43:01.500Z,0
2019-03-16T01:44:01.460Z,0
2019-03-16T01:45:02.885Z,0
2019-03-16T01:46:02.641Z,0
2019-03-16T01:47:03.964Z,0
2019-03-16T01:48:04.722Z,0
2019-03-16T01:49:04.925Z,0
2019-03-16T01:50:05.405Z,0
2019-03-16T01:51:06.454Z,0
2019-03-16T01:52:06.209Z,0
2019-03-16T01:53:06.412Z,0
2019-03-16T01:54:07.613Z,0
2019-03-16T01:55:08.389Z,0
2019-03-16T01:56:09.050Z,0
2019-03-16T01:57:09.830Z,0
2019-03-16T01:58:10.589Z,0
2019-03-16T01:59:11.067Z,0
2019-03-16T02:00:12.385Z,0
2019-03-16T02:01:13.432Z,0
2019-03-16T02:02:13.949Z,0
2019-03-16T02:03:14.152Z,0
2019-03-16T02:04:14.923Z,0
2019-03-16T02:05:16.554Z,0
2019-03-16T02:06:16.314Z,0
2019-03-16T02:07:17.371Z,0
2019-03-16T02:08:18.129Z,0
2019-03-16T02:09:18.888Z,0
2019-03-16T02:10:19.374Z,0
2019-03-16T02:11:19.579Z,0
2019-03-16T02:12:20.065Z,0
2019-03-16T02:13:20.822Z,0
2019-03-16T02:14:20.744Z,0
2019-03-16T02:15:21.226Z,0
2019-03-16T02:16:21.978Z,0
2019-03-16T02:17:22.474Z,0
2019-03-16T02:18:23.233Z,0
2019-03-16T02:19:23.523Z,0
2019-03-16T02:20:24.280Z,0
2019-03-16T02:21:24.759Z,0
2019-03-16T02:22:26.091Z,0
2019-03-16T02:23:26.448Z,0
2019-03-16T02:24:27.223Z,0
2019-03-16T02:25:27.259Z,0
2019-03-16T02:26:28.145Z,0
2019-03-16T02:27:28.351Z,0
2019-03-16T02:28:29.386Z,0
2019-03-16T02:29:30.144Z,0
2019-03-16T02:30:32.074Z,0
2019-03-16T02:31:32.979Z,0
2019-03-16T02:32:33.340Z,0
2019-03-16T02:33:33.935Z,0
2019-03-16T02:34:34.938Z,0
2019-03-16T02:35:36.258Z,0
2019-03-16T02:36:37.322Z,0
2019-03-16T02:37:38.698Z,0
2019-03-16T02:38:39.040Z,0
2019-03-16T02:39:39.636Z,0
2019-03-16T02:40:40.719Z,0
2019-03-16T02:41:42.051Z,0
2019-03-16T02:42:44.353Z,0
2019-03-16T02:43:44.247Z,0
2019-03-16T02:44:44.365Z,0
2019-03-16T02:45:44.874Z,0
2019-03-16T02:46:46.774Z,0
2019-03-16T02:47:48.056Z,0
2019-03-16T02:48:48.122Z,0
2019-03-16T02:49:49.002Z,0
2019-03-16T02:50:49.505Z,0
2019-03-16T02:51:50.574Z,0
2019-03-16T02:52:53.347Z,0
2019-03-16T02:53:53.956Z,0
2019-03-16T02:54:54.590Z,0
2019-03-16T02:55:55.947Z,0
2019-03-16T02:56:57.101Z,0
2019-03-16T02:57:56.882Z,0
2019-03-16T02:58:58.502Z,0
2019-03-16T02:59:58.547Z,0
2019-03-16T03:01:00.145Z,0
2019-03-16T03:02:01.324Z,0
2019-03-16T03:03:01.652Z,0
2019-03-16T03:04:02.001Z,0
2019-03-16T03:05:02.651Z,0
2019-03-16T03:06:04.055Z,0
2019-03-16T03:07:04.307Z,0
2019-03-16T03:08:04.660Z,0
2019-03-16T03:09:05.467Z,0
2019-03-16T03:10:07.087Z,0
2019-03-16T03:11:07.241Z,0
2019-03-16T03:12:07.601Z,0
2019-03-16T03:13:13.064Z,0
2019-03-16T03:13:19.040Z,0
2019-03-16T03:14:19.240Z,0
2019-03-16T03:15:19.285Z,0
2019-03-16T03:16:20.353Z,0
2019-03-16T03:17:21.732Z,0
2019-03-16T03:18:22.367Z,0
2019-03-16T03:19:22.966Z,0
2019-03-16T03:20:23.021Z,0
2019-03-16T03:21:23.643Z,0
2019-03-16T03:22:25.517Z,0
2019-03-16T03:23:26.159Z,0
2019-03-16T03:24:26.430Z,0
2019-03-16T03:25:26.769Z,0
2019-03-16T03:26:28.627Z,0
2019-03-16T03:27:27.978Z,0
2019-03-16T03:28:28.585Z,0
2019-03-16T03:29:29.642Z,0
2019-03-16T03:30:31.599Z,0
2019-03-16T03:31:32.696Z,0
2019-03-16T03:32:32.404Z,0
2019-03-16T03:34:05.854Z,0
2019-03-16T03:35:05.196Z,0
2019-03-16T03:36:05.260Z,0
2019-03-16T03:37:06.902Z,0
2019-03-16T03:38:07.529Z,0
2019-03-16T03:39:07.867Z,0
2019-03-16T03:40:08.986Z,0
2019-03-16T03:41:10.860Z,0
2019-03-16T03:42:11.221Z,0
2019-03-16T03:43:13.094Z,0
2019-03-16T03:44:13.442Z,0
2019-03-16T03:45:15.216Z,0
2019-03-16T03:46:14.978Z,0
2019-03-16T03:47:15.743Z,0
2019-03-16T03:48:17.617Z,0
2019-03-16T03:49:17.747Z,0
2019-03-16T03:50:18.551Z,0
2019-03-16T03:51:20.152Z,0
2019-03-16T03:52:21.583Z,0
2019-03-16T03:53:21.372Z,0
2019-03-16T03:54:22.485Z,0
2019-03-16T03:55:23.418Z,0
2019-03-16T03:56:25.300Z,0
2019-03-16T03:57:26.301Z,0
2019-03-16T03:58:26.119Z,0
2019-03-16T03:59:27.210Z,0
2019-03-16T04:00:28.535Z,0
2019-03-16T04:01:29.598Z,0
2019-03-16T04:02:30.109Z,0
2019-03-16T04:03:30.871Z,0
2019-03-16T04:04:31.776Z,0
2019-03-16T04:05:32.126Z,0
2019-03-16T04:06:33.203Z,0
2019-03-16T04:07:33.868Z,0
2019-03-16T04:08:35.050Z,0
2019-03-16T04:09:37.243Z,0
2019-03-16T04:10:37.890Z,0
2019-03-16T04:11:38.022Z,0
2019-03-16T04:12:38.937Z,0
2019-03-16T04:13:39.288Z,0
2019-03-16T04:14:38.806Z,0
2019-03-16T04:15:40.325Z,0
2019-03-16T04:16:41.032Z,0
2019-03-16T04:17:42.599Z,0
2019-03-16T04:18:43.240Z,0
2019-03-16T04:19:42.777Z,0
2019-03-16T04:20:43.853Z,0
2019-03-16T04:21:45.184Z,0
2019-03-16T04:22:46.825Z,0
2019-03-16T04:23:47.317Z,0
2019-03-16T04:24:48.645Z,0
2019-03-16T04:25:49.689Z,0
2019-03-16T04:26:50.027Z,0
2019-03-16T04:27:50.645Z,0
2019-03-16T04:28:50.962Z,0
2019-03-16T04:29:52.295Z,0
2019-03-16T04:30:54.197Z,0
2019-03-16T04:31:54.807Z,0
2019-03-16T04:32:54.580Z,0
2019-03-16T04:33:55.085Z,0
2019-03-16T04:34:55.863Z,0
2019-03-16T04:35:57.097Z,0
2019-03-16T04:36:58.282Z,0
2019-03-16T04:37:58.314Z,0
2019-03-16T04:38:59.637Z,0
2019-03-16T04:40:00.966Z,0
2019-03-16T04:41:01.320Z,0
2019-03-16T04:42:01.621Z,0
2019-03-16T04:43:02.660Z,0
2019-03-16T04:44:03.222Z,0
2019-03-16T04:45:04.868Z,0
2019-03-16T04:46:05.398Z,0
2019-03-16T04:47:06.436Z,0
2019-03-16T04:48:07.206Z,0
2019-03-16T04:49:07.688Z,0
2019-03-16T04:50:07.924Z,0
2019-03-16T04:51:08.459Z,0
2019-03-16T04:52:09.214Z,0
2019-03-16T04:53:09.695Z,0
2019-03-16T04:54:10.461Z,0
2019-03-16T04:55:11.223Z,0
2019-03-16T04:56:12.096Z,0
2019-03-16T04:57:12.854Z,0
2019-03-16T04:58:13.893Z,0
2019-03-16T04:59:14.455Z,0
2019-03-16T05:00:15.216Z,0
2019-03-16T05:01:15.699Z,0
2019-03-16T05:02:16.735Z,0
2019-03-16T05:03:17.489Z,0
2019-03-16T05:04:17.689Z,0
2019-03-16T05:05:18.159Z,0
2019-03-16T05:06:18.933Z,0
2019-03-16T05:07:19.954Z,0
2019-03-16T05:08:20.715Z,0
2019-03-16T05:09:21.189Z,0
2019-03-16T05:10:22.216Z,0
2019-03-16T05:11:22.412Z,0
2019-03-16T05:12:22.606Z,0
2019-03-16T05:13:23.916Z,0
2019-03-16T05:14:24.391Z,0
2019-03-16T05:15:26.542Z,0
2019-03-16T05:16:26.174Z,0
2019-03-16T05:17:27.265Z,0
2019-03-16T05:18:28.020Z,0
2019-03-16T05:19:29.060Z,0
2019-03-16T05:20:29.370Z,0
2019-03-16T05:21:30.124Z,0
2019-03-16T05:22:30.318Z,0
2019-03-16T05:23:31.075Z,0
2019-03-16T05:24:31.827Z,0
2019-03-16T05:25:33.136Z,0
2019-03-16T05:26:32.774Z,0
2019-03-16T05:27:33.531Z,0
2019-03-16T05:28:34.362Z,0
2019-03-16T05:29:35.131Z,0
2019-03-16T05:30:36.162Z,0
2019-03-16T05:31:36.918Z,5.63
2019-03-16T05:32:38.287Z,5.63
2019-03-16T05:33:39.636Z,5.63
2019-03-16T05:34:39.527Z,5.63
2019-03-16T05:35:40.851Z,5.63
2019-03-16T05:36:41.633Z,5.63
2019-03-16T05:37:42.414Z,5.63
2019-03-16T05:38:44.334Z,5.63
2019-03-16T05:39:43.531Z,5.63
2019-03-16T05:40:44.288Z,5.63
2019-03-16T05:41:44.763Z,11.25
2019-03-16T05:42:45.625Z,11.25
2019-03-16T05:43:46.377Z,16.88
2019-03-16T05:44:46.575Z,16.88
2019-03-16T05:45:47.331Z,22.5
2019-03-16T05:46:47.797Z,22.5
2019-03-16T05:47:48.555Z,22.5
2019-03-16T05:48:49.029Z,22.5
2019-03-16T05:49:50.060Z,28.13
2019-03-16T05:50:50.572Z,28.13
2019-03-16T05:51:51.981Z,28.13
2019-03-16T05:52:52.742Z,28.13
2019-03-16T05:53:53.325Z,28.13
2019-03-16T05:54:54.132Z,28.13
2019-03-16T05:55:55.453Z,28.13
2019-03-16T05:56:55.369Z,33.75
2019-03-16T05:57:55.844Z,33.75
2019-03-16T05:58:56.879Z,33.75
2019-03-16T05:59:57.080Z,39.38
2019-03-16T06:00:57.831Z,45
2019-03-16T06:01:58.303Z,50.63
2019-03-16T06:02:59.057Z,50.63
2019-03-16T06:03:59.535Z,56.25
2019-03-16T06:05:13.655Z,61.88
2019-03-16T06:06:10.644Z,61.88
2019-03-16T06:07:12.087Z,67.5
2019-03-16T06:08:12.369Z,67.5
2019-03-16T06:09:13.680Z,67.5
2019-03-16T06:10:14.160Z,73.13
2019-03-16T06:11:14.914Z,73.13
2019-03-16T06:12:15.709Z,73.13
2019-03-16T06:13:16.464Z,73.13
2019-03-16T06:14:17.220Z,73.13
2019-03-16T06:15:18.067Z,73.13
2019-03-16T06:16:19.118Z,73.13
2019-03-16T06:17:19.989Z,73.13
2019-03-16T06:18:19.750Z,73.13
2019-03-16T06:19:20.783Z,73.13
2019-03-16T06:20:21.287Z,73.13
2019-03-16T06:21:22.074Z,73.13
2019-03-16T06:22:22.398Z,73.13
2019-03-16T06:23:25.397Z,67.5
2019-03-16T06:24:23.431Z,67.5
2019-03-16T06:25:24.795Z,61.88
2019-03-16T06:26:25.040Z,61.88
2019-03-16T06:27:25.312Z,67.5
2019-03-16T06:28:26.680Z,67.5
2019-03-16T06:29:27.242Z,67.5
2019-03-16T06:30:27.999Z,73.13
2019-03-16T06:31:29.339Z,73.13
2019-03-16T06:32:29.544Z,73.13
2019-03-16T06:33:29.759Z,73.13
2019-03-16T06:34:30.235Z,78.75
2019-03-16T06:35:31.927Z,84.38
2019-03-16T06:36:32.996Z,84.38
2019-03-16T06:37:34.040Z,90
2019-03-16T06:38:34.799Z,90
2019-03-16T06:39:35.556Z,95.63
2019-03-16T06:40:36.594Z,95.63
2019-03-16T06:41:37.073Z,106.88
2019-03-16T06:42:37.825Z,123.75
2019-03-16T06:43:39.087Z,140.63
2019-03-16T06:44:38.844Z,157.5
2019-03-16T06:45:40.161Z,163.13
2019-03-16T06:46:41.182Z,174.38
2019-03-16T06:47:41.388Z,180
2019-03-16T06:48:42.149Z,202.5
2019-03-16T06:49:42.633Z,213.75
2019-03-16T06:50:43.115Z,219.38
2019-03-16T06:51:44.429Z,225
2019-03-16T06:52:44.917Z,230.63
2019-03-16T06:53:45.996Z,247.5
2019-03-16T06:54:45.804Z,247.5
2019-03-16T06:55:46.293Z,247.5
2019-03-16T06:56:47.209Z,253.13
2019-03-16T06:57:47.685Z,241.88
2019-03-16T06:58:48.445Z,236.25
2019-03-16T06:59:48.952Z,230.63
2019-03-16T07:00:49.525Z,225
2019-03-16T07:01:50.295Z,225
2019-03-16T07:02:51.331Z,219.38
2019-03-16T07:03:51.580Z,219.38
2019-03-16T07:04:52.336Z,213.75
2019-03-16T07:05:53.141Z,219.38
2019-03-16T07:06:53.911Z,219.38
2019-03-16T07:07:54.942Z,225
2019-03-16T07:08:55.420Z,219.38
2019-03-16T07:09:55.622Z,219.38
2019-03-16T07:10:56.099Z,219.38
2019-03-16T07:11:56.679Z,219.38
2019-03-16T07:12:57.504Z,219.38
2019-03-16T07:13:57.989Z,219.38
2019-03-16T07:14:58.748Z,213.75
2019-03-16T07:15:59.238Z,213.75
2019-03-16T07:17:04.867Z,219.38
2019-03-16T07:18:05.627Z,230.63
2019-03-16T07:19:06.689Z,236.25
2019-03-16T07:20:07.168Z,236.25
2019-03-16T07:21:07.367Z,247.5
2019-03-16T07:22:08.128Z,253.13
2019-03-16T07:23:08.582Z,264.38
2019-03-16T07:24:09.684Z,270
2019-03-16T07:25:10.164Z,275.63
2019-03-16T07:26:21.314Z,281.25
2019-03-16T07:27:31.574Z,281.25
2019-03-16T07:28:32.502Z,286.88
2019-03-16T07:29:32.979Z,292.5
2019-03-16T07:30:33.458Z,303.75
2019-03-16T07:31:35.156Z,320.63
2019-03-16T07:32:35.664Z,331.88
2019-03-16T07:33:36.144Z,343.13
2019-03-16T07:34:36.645Z,365.63
2019-03-16T07:35:37.121Z,382.5
2019-03-16T07:36:38.442Z,405
2019-03-16T07:37:39.759Z,421.88
2019-03-16T07:38:39.407Z,450
2019-03-16T07:39:39.886Z,478.13
2019-03-16T07:40:41.480Z,618.75
2019-03-16T07:41:41.783Z,545.63
2019-03-16T07:42:42.388Z,573.75
2019-03-16T07:43:42.909Z,596.25
2019-03-16T07:44:44.222Z,601.88
2019-03-16T07:45:44.981Z,686.25
2019-03-16T07:46:45.460Z,877.5
2019-03-16T07:47:46.222Z,635.63
2019-03-16T07:48:46.157Z,1518.75
2019-03-16T07:49:46.642Z,1710
2019-03-16T07:50:47.207Z,1164.38
2019-03-16T07:51:48.537Z,663.75
2019-03-16T07:52:49.035Z,945
2019-03-16T07:53:49.245Z,691.88
2019-03-16T07:54:50.026Z,1029.38
2019-03-16T07:55:50.791Z,928.13
2019-03-16T07:56:52.104Z,832.5
2019-03-16T07:57:52.313Z,978.75
2019-03-16T07:58:53.814Z,770.63
2019-03-16T07:59:55.297Z,843.75
2019-03-16T08:00:55.780Z,753.75
2019-03-16T08:01:57.662Z,742.5
2019-03-16T08:02:57.138Z,855
2019-03-16T08:03:57.909Z,973.13
2019-03-16T08:04:58.402Z,821.25
2019-03-16T08:05:59.161Z,810
2019-03-16T08:06:59.919Z,742.5
2019-03-16T08:08:00.489Z,658.13
2019-03-16T08:09:02.315Z,686.25
2019-03-16T08:10:05.479Z,641.25
2019-03-16T08:11:05.717Z,624.38
2019-03-16T08:12:05.926Z,556.88
2019-03-16T08:13:06.757Z,545.63
2019-03-16T08:14:07.525Z,568.13
2019-03-16T08:15:08.672Z,601.88
2019-03-16T08:16:08.436Z,585
2019-03-16T08:17:08.678Z,590.63
2019-03-16T08:18:10.730Z,725.63
2019-03-16T08:19:11.219Z,601.88
2019-03-16T08:20:11.518Z,579.38
2019-03-16T08:21:12.277Z,613.13
2019-03-16T08:22:14.451Z,590.63
2019-03-16T08:23:13.657Z,551.25
2019-03-16T08:24:14.144Z,556.88
2019-03-16T08:25:15.280Z,562.5
2019-03-16T08:26:16.128Z,607.5
2019-03-16T08:27:16.614Z,635.63
2019-03-16T08:28:16.824Z,714.38
2019-03-16T08:29:17.767Z,742.5
2019-03-16T08:30:19.214Z,675
2019-03-16T08:31:19.282Z,652.5
2019-03-16T08:32:20.608Z,1569.38
2019-03-16T08:33:20.729Z,1591.88
2019-03-16T08:34:21.771Z,871.88
2019-03-16T08:35:22.259Z,1158.75
2019-03-16T08:36:23.306Z,573.75
2019-03-16T08:37:24.378Z,1170
2019-03-16T08:38:24.867Z,1383.75
2019-03-16T08:39:25.804Z,1535.63
2019-03-16T08:40:26.929Z,1530
2019-03-16T08:41:27.129Z,1378.13
2019-03-16T08:42:27.908Z,1096.88
2019-03-16T08:43:28.677Z,568.13
2019-03-16T08:44:29.438Z,568.13
2019-03-16T08:45:29.644Z,562.5
2019-03-16T08:46:30.126Z,613.13
2019-03-16T08:47:33.954Z,759.38
2019-03-16T08:48:35.008Z,1147.5
2019-03-16T08:49:35.775Z,1271.25
2019-03-16T08:50:36.269Z,1153.13
2019-03-16T08:51:36.480Z,748.13
2019-03-16T08:52:37.245Z,832.5
2019-03-16T08:53:37.731Z,961.88
2019-03-16T08:54:38.225Z,669.38
2019-03-16T08:55:38.990Z,1434.38
2019-03-16T08:56:39.476Z,2469.38
2019-03-16T08:57:40.285Z,2441.25
2019-03-16T08:58:41.068Z,2261.25
2019-03-16T08:59:41.654Z,2345.63
2019-03-16T09:00:42.143Z,2340
2019-03-16T09:01:43.201Z,2278.13
2019-03-16T09:02:44.002Z,2553.75
2019-03-16T09:03:46.122Z,2283.75
2019-03-16T09:04:47.286Z,2289.38
2019-03-16T09:05:47.814Z,2390.63
2019-03-16T09:06:48.313Z,1783.13
2019-03-16T09:07:48.813Z,1912.5
2019-03-16T09:08:49.578Z,1822.5
2019-03-16T09:09:50.815Z,1501.88
2019-03-16T09:10:51.933Z,1743.75
2019-03-16T09:11:54.663Z,1558.13
2019-03-16T09:12:57.205Z,2205
2019-03-16T09:13:57.696Z,1687.5
2019-03-16T09:14:58.534Z,1771.88
2019-03-16T09:15:59.581Z,2131.88
2019-03-16T09:17:00.103Z,1530
2019-03-16T09:18:01.148Z,748.13
2019-03-16T09:19:01.652Z,765
2019-03-16T09:20:02.770Z,855
2019-03-16T09:21:03.558Z,1153.13
2019-03-16T09:22:04.956Z,1102.5
2019-03-16T09:23:05.569Z,821.25
2019-03-16T09:24:05.612Z,973.13
2019-03-16T09:25:06.395Z,871.88
2019-03-16T09:26:07.163Z,967.5
2019-03-16T09:27:07.666Z,866.25
2019-03-16T09:28:20.967Z,1254.38
2019-03-16T09:29:17.203Z,1378.13
2019-03-16T09:30:15.996Z,1670.63
2019-03-16T09:31:15.772Z,1805.63
2019-03-16T09:32:16.538Z,1395
2019-03-16T09:33:19.183Z,1524.38
2019-03-16T09:34:19.470Z,1563.75
2019-03-16T09:35:19.964Z,1710
2019-03-16T09:36:21.010Z,1608.75
2019-03-16T09:37:22.072Z,725.63
2019-03-16T09:38:23.115Z,528.75
2019-03-16T09:39:23.680Z,1181.25
2019-03-16T09:40:24.892Z,1873.13
2019-03-16T09:41:25.382Z,1816.88
2019-03-16T09:42:25.913Z,2002.5
2019-03-16T09:43:26.675Z,2435.63
2019-03-16T09:44:27.170Z,2120.63
2019-03-16T09:45:28.220Z,2238.75
2019-03-16T09:46:27.984Z,2497.5
2019-03-16T09:47:29.817Z,2261.25
2019-03-16T09:48:30.165Z,2435.63
2019-03-16T09:49:30.543Z,2531.25
2019-03-16T09:50:31.379Z,2075.63
2019-03-16T09:51:30.874Z,1890
2019-03-16T09:52:31.359Z,1940.63
2019-03-16T09:53:32.124Z,2098.13
2019-03-16T09:54:32.890Z,2143.13
2019-03-16T09:55:36.562Z,2520
2019-03-16T09:56:34.084Z,2514.38
2019-03-16T09:57:34.953Z,2317.5
2019-03-16T09:58:35.452Z,2340
2019-03-16T09:59:36.530Z,2508.75
2019-03-16T10:00:37.509Z,1974.38
2019-03-16T10:01:38.013Z,2250
2019-03-16T10:02:38.505Z,2486.25
2019-03-16T10:03:39.290Z,2154.38
2019-03-16T10:04:40.615Z,2182.5
2019-03-16T10:05:41.455Z,2086.88
2019-03-16T10:06:42.245Z,2036.25
2019-03-16T10:07:48.107Z,2143.13
2019-03-16T10:07:59.571Z,2109.38
2019-03-16T10:08:05.021Z,2171.25
2019-03-16T10:09:09.367Z,2227.5
2019-03-16T10:09:17.829Z,2188.13
2019-03-16T10:10:15.918Z,2379.38
2019-03-16T10:11:16.688Z,2683.13
2019-03-16T10:12:17.211Z,2745
2019-03-16T10:13:17.979Z,2638.13
2019-03-16T10:14:18.829Z,2643.75
2019-03-16T10:15:19.110Z,2610
2019-03-16T10:16:19.620Z,2671.88
2019-03-16T10:17:20.665Z,2733.75
2019-03-16T10:18:21.150Z,2745
2019-03-16T10:19:21.919Z,2728.13
2019-03-16T10:20:23.403Z,2700
2019-03-16T10:21:22.690Z,2705.63
2019-03-16T10:22:23.458Z,2806.88
2019-03-16T10:23:24.228Z,2823.75
2019-03-16T10:24:25.550Z,2806.88
2019-03-16T10:25:25.054Z,2778.75
2019-03-16T10:26:25.815Z,2559.38
2019-03-16T10:27:26.581Z,2677.5
2019-03-16T10:28:27.167Z,2638.13
2019-03-16T10:29:28.235Z,2649.38
2019-03-16T10:30:27.897Z,2677.5
2019-03-16T10:31:28.668Z,2784.38
2019-03-16T10:32:29.158Z,2857.5
2019-03-16T10:33:30.213Z,2857.5
2019-03-16T10:34:30.981Z,2896.88
2019-03-16T10:35:31.821Z,2925
2019-03-16T10:36:32.038Z,2964.38
2019-03-16T10:37:32.807Z,2936.25
2019-03-16T10:38:33.018Z,2868.75
2019-03-16T10:39:33.801Z,2812.5
2019-03-16T10:40:35.124Z,2677.5
2019-03-16T10:41:35.633Z,2475
2019-03-16T10:42:36.128Z,2716.88
2019-03-16T10:43:37.203Z,2722.5
2019-03-16T10:44:37.411Z,2868.75
2019-03-16T10:45:38.506Z,2953.13
2019-03-16T10:46:38.553Z,2745
2019-03-16T10:47:39.319Z,2261.25
2019-03-16T10:48:39.806Z,2705.63
2019-03-16T10:49:40.300Z,2655
2019-03-16T10:50:40.563Z,2671.88
2019-03-16T10:51:41.158Z,2778.75
2019-03-16T10:52:41.732Z,2846.25
2019-03-16T10:53:42.226Z,2958.75
2019-03-16T10:54:42.718Z,2964.38
2019-03-16T10:55:43.487Z,3217.5
2019-03-16T10:56:44.255Z,3369.38
2019-03-16T10:57:44.471Z,3465
2019-03-16T10:58:59.385Z,3420
2019-03-16T10:59:55.600Z,3262.5
2019-03-16T11:00:56.112Z,3071.25
2019-03-16T11:01:56.323Z,2958.75
2019-03-16T11:02:56.812Z,2941.88
2019-03-16T11:03:57.580Z,2953.13
2019-03-16T11:04:58.084Z,2829.38
2019-03-16T11:05:58.852Z,2941.88
2019-03-16T11:06:59.346Z,2683.13
2019-03-16T11:07:59.840Z,1991.25
2019-03-16T11:09:00.055Z,2435.63
2019-03-16T11:10:00.989Z,2216.25
2019-03-16T11:11:01.777Z,2790
2019-03-16T11:12:02.904Z,2936.25
2019-03-16T11:13:03.247Z,2486.25
2019-03-16T11:14:03.018Z,2385
2019-03-16T11:15:03.793Z,2508.75
2019-03-16T11:16:04.563Z,2430
2019-03-16T11:17:05.059Z,2621.25
2019-03-16T11:18:06.119Z,2553.75
2019-03-16T11:19:07.200Z,2610
2019-03-16T11:20:08.093Z,2278.13
2019-03-16T11:21:09.131Z,2272.5
2019-03-16T11:22:10.192Z,2300.63
2019-03-16T11:23:10.702Z,2413.13
2019-03-16T11:24:12.589Z,2536.88
2019-03-16T11:25:12.801Z,2176.88
2019-03-16T11:26:13.649Z,2193.75
2019-03-16T11:27:16.797Z,1996.88
2019-03-16T11:28:14.805Z,1726.88
2019-03-16T11:29:15.897Z,2008.13
2019-03-16T11:30:16.229Z,2193.75
2019-03-16T11:31:17.013Z,1918.13
2019-03-16T11:32:17.230Z,2103.75
2019-03-16T11:33:17.728Z,1704.38
2019-03-16T11:34:18.216Z,1580.63
2019-03-16T11:35:19.053Z,2491.88
2019-03-16T11:36:19.543Z,2013.75
2019-03-16T11:37:20.037Z,1670.63
2019-03-16T11:38:20.525Z,1918.13
2019-03-16T11:39:21.680Z,1659.38
2019-03-16T11:40:22.350Z,1957.5
2019-03-16T11:41:22.565Z,2148.75
2019-03-16T11:42:23.614Z,2036.25
2019-03-16T11:43:24.392Z,2244.38
2019-03-16T11:44:24.881Z,1946.25
2019-03-16T11:45:25.926Z,1800
2019-03-16T11:46:26.691Z,1530
2019-03-16T11:47:26.901Z,1698.75
2019-03-16T11:48:27.395Z,1850.63
2019-03-16T11:49:27.686Z,1411.88
2019-03-16T11:50:28.066Z,1693.13
2019-03-16T11:51:28.572Z,1344.38
2019-03-16T11:52:29.059Z,1636.88
2019-03-16T11:53:30.695Z,2030.63
2019-03-16T11:54:29.910Z,2413.13
2019-03-16T11:55:30.437Z,1991.25
2019-03-16T11:56:31.284Z,1676.25
2019-03-16T11:57:31.504Z,1935
2019-03-16T11:58:32.008Z,2002.5
2019-03-16T11:59:32.778Z,2182.5
2019-03-16T12:00:33.569Z,2553.75
2019-03-16T12:01:33.911Z,2615.63
2019-03-16T12:02:34.141Z,2508.75
2019-03-16T12:03:34.912Z,2418.75
2019-03-16T12:04:35.691Z,2295
2019-03-16T12:05:36.458Z,2064.38
2019-03-16T12:06:37.226Z,2081.25
2019-03-16T12:07:38.356Z,2064.38
2019-03-16T12:08:41.828Z,2137.5
2019-03-16T12:09:43.157Z,2143.13
2019-03-16T12:10:42.535Z,1811.25
2019-03-16T12:11:43.098Z,2289.38
2019-03-16T12:12:43.881Z,2131.88
2019-03-16T12:13:46.403Z,2182.5
2019-03-16T12:14:49.113Z,1991.25
2019-03-16T12:15:49.023Z,2025
2019-03-16T12:16:49.533Z,1940.63
2019-03-16T12:17:50.301Z,2131.88
2019-03-16T12:18:51.650Z,1878.75
2019-03-16T12:19:52.149Z,1890
2019-03-16T12:20:53.252Z,1254.38
2019-03-16T12:21:54.019Z,826.88
2019-03-16T12:22:54.790Z,973.13
2019-03-16T12:23:55.556Z,922.5
2019-03-16T12:24:56.044Z,984.38
2019-03-16T12:25:56.523Z,860.63
2019-03-16T12:26:57.566Z,911.25
2019-03-16T12:27:58.611Z,866.25
2019-03-16T12:28:58.654Z,978.75
2019-03-16T12:29:59.494Z,956.25
2019-03-16T12:31:00.026Z,916.88
2019-03-16T12:32:00.807Z,832.5
2019-03-16T12:33:01.575Z,759.38
2019-03-16T12:34:02.166Z,855
2019-03-16T12:35:02.659Z,787.5
2019-03-16T12:36:03.424Z,1186.88
2019-03-16T12:37:04.482Z,1057.5
2019-03-16T12:38:04.815Z,1299.38
2019-03-16T12:39:05.316Z,1321.88
2019-03-16T12:40:06.451Z,1130.63
2019-03-16T12:41:06.991Z,1209.38
2019-03-16T12:42:08.040Z,1119.38
2019-03-16T12:43:08.366Z,1288.13
2019-03-16T12:44:08.425Z,1631.25
2019-03-16T12:45:08.931Z,1192.5
2019-03-16T12:46:09.698Z,1192.5
2019-03-16T12:47:10.185Z,1276.88
2019-03-16T12:48:10.394Z,1226.25
2019-03-16T12:49:11.174Z,1440
2019-03-16T12:50:12.235Z,849.38
2019-03-16T12:51:13.374Z,635.63
2019-03-16T12:52:14.137Z,568.13
2019-03-16T12:53:14.785Z,613.13
2019-03-16T12:54:15.330Z,573.75
2019-03-16T12:55:16.103Z,607.5
2019-03-16T12:56:16.868Z,663.75
2019-03-16T12:57:17.077Z,545.63
2019-03-16T12:58:17.567Z,540
2019-03-16T12:59:18.058Z,489.38
2019-03-16T13:00:19.120Z,461.25
2019-03-16T13:01:18.951Z,455.63
2019-03-16T13:02:20.025Z,455.63
2019-03-16T13:03:21.964Z,450
2019-03-16T13:04:22.354Z,444.38
2019-03-16T13:05:21.839Z,461.25
2019-03-16T13:06:22.051Z,450
2019-03-16T13:07:23.019Z,466.88
2019-03-16T13:08:23.871Z,500.63
2019-03-16T13:09:24.638Z,624.38
2019-03-16T13:10:25.401Z,984.38
2019-03-16T13:11:25.340Z,1220.63
2019-03-16T13:12:26.178Z,866.25
2019-03-16T13:13:26.667Z,1608.75
2019-03-16T13:14:27.666Z,1732.5
2019-03-16T13:15:28.206Z,2491.88
2019-03-16T13:16:28.688Z,1181.25
2019-03-16T13:17:28.902Z,1316.25
2019-03-16T13:18:29.679Z,1029.38
2019-03-16T13:19:30.448Z,1023.75
2019-03-16T13:20:30.949Z,933.75
2019-03-16T13:21:30.953Z,1023.75
2019-03-16T13:22:31.454Z,973.13
2019-03-16T13:23:31.721Z,804.38
2019-03-16T13:24:32.483Z,815.63
2019-03-16T13:25:33.452Z,860.63
2019-03-16T13:26:34.829Z,939.38
2019-03-16T13:27:34.604Z,911.25
2019-03-16T13:28:37.636Z,888.75
2019-03-16T13:29:38.126Z,950.63